sensor_id;sensor_type;location;lat;lon;timestamp;pressure;altitude;pressure_sealevel;temperature;humidity
12775;BME280;6451;42.630;23.382;2023-03-04T00:00:01;94445.72;;;6.00;100.00
12775;BME280;6451;42.630;23.382;2023-03-04T00:02:28;94450.34;;;6.08;100.00
12775;BME280;6451;42.630;23.382;2023-03-04T00:04:56;94430.31;;;5.83;100.00
12775;BME280;6451;42.630;23.382;2023-03-04T00:07:23;94442.03;;;5.88;100.00
12775;BME280;6451;42.630;23.382;2023-03-04T00:09:50;94428.97;;;5.64;100.00
12775;BME280;6451;42.630;23.382;2023-03-04T00:12:18;94443.59;;;5.80;100.00
12775;BME280;6451;42.630;23.382;2023-03-04T00:14:44;94439.38;;;5.96;100.00
12775;BME280;6451;42.630;23.382;2023-03-04T00:17:12;94382.53;;;5.41;100.00
12775;BME280;6451;42.630;23.382;2023-03-04T00:19:39;94383.22;;;5.64;100.00
12775;BME280;6451;42.630;23.382;2023-03-04T00:22:07;94434.50;;;5.98;100.00
12775;BME280;6451;42.630;23.382;2023-03-04T00:24:34;94434.00;;;6.05;100.00
12775;BME280;6451;42.630;23.382;2023-03-04T00:27:01;94387.03;;;5.71;100.00
12775;BME280;6451;42.630;23.382;2023-03-04T00:29:28;94383.88;;;5.69;100.00
12775;BME280;6451;42.630;23.382;2023-03-04T00:31:55;94434.16;;;6.00;100.00
12775;BME280;6451;42.630;23.382;2023-03-04T00:34:22;94427.81;;;6.04;100.00
12775;BME280;6451;42.630;23.382;2023-03-04T00:36:48;94435.44;;;6.11;100.00
12775;BME280;6451;42.630;23.382;2023-03-04T00:39:17;94429.25;;;6.10;100.00
12775;BME280;6451;42.630;23.382;2023-03-04T00:41:43;94421.97;;;6.02;100.00
12775;BME280;6451;42.630;23.382;2023-03-04T00:44:11;94424.66;;;6.11;100.00
12775;BME280;6451;42.630;23.382;2023-03-04T00:46:37;94428.47;;;6.10;100.00
12775;BME280;6451;42.630;23.382;2023-03-04T00:49:04;94433.41;;;6.25;100.00
12775;BME280;6451;42.630;23.382;2023-03-04T00:51:31;94429.28;;;6.28;100.00
12775;BME280;6451;42.630;23.382;2023-03-04T00:53:58;94404.41;;;6.13;100.00
12775;BME280;6451;42.630;23.382;2023-03-04T00:56:27;94423.56;;;6.21;100.00
12775;BME280;6451;42.630;23.382;2023-03-04T00:58:54;94426.66;;;5.88;100.00
12775;BME280;6451;42.630;23.382;2023-03-04T01:01:21;94430.19;;;5.97;100.00
12775;BME280;6451;42.630;23.382;2023-03-04T01:03:48;94434.97;;;6.09;100.00
12775;BME280;6451;42.630;23.382;2023-03-04T01:06:15;94412.31;;;6.01;100.00
12775;BME280;6451;42.630;23.382;2023-03-04T01:08:42;94392.97;;;5.99;100.00
12775;BME280;6451;42.630;23.382;2023-03-04T01:11:09;94412.63;;;6.08;100.00
12775;BME280;6451;42.630;23.382;2023-03-04T01:13:37;94408.69;;;6.06;100.00
12775;BME280;6451;42.630;23.382;2023-03-04T01:16:05;94411.19;;;6.02;100.00
12775;BME280;6451;42.630;23.382;2023-03-04T01:18:33;94411.06;;;6.16;100.00
12775;BME280;6451;42.630;23.382;2023-03-04T01:21:00;94365.69;;;5.83;100.00
12775;BME280;6451;42.630;23.382;2023-03-04T01:23:27;94404.56;;;6.08;100.00
12775;BME280;6451;42.630;23.382;2023-03-04T01:25:54;94410.97;;;5.90;100.00
12775;BME280;6451;42.630;23.382;2023-03-04T01:28:20;94405.78;;;5.94;100.00
12775;BME280;6451;42.630;23.382;2023-03-04T01:30:49;94395.97;;;5.98;100.00
12775;BME280;6451;42.630;23.382;2023-03-04T01:33:16;94393.91;;;6.03;100.00
12775;BME280;6451;42.630;23.382;2023-03-04T01:35:42;94396.25;;;5.79;100.00
12775;BME280;6451;42.630;23.382;2023-03-04T01:38:09;94396.56;;;5.77;100.00
12775;BME280;6451;42.630;23.382;2023-03-04T01:40:38;94390.44;;;5.94;100.00
12775;BME280;6451;42.630;23.382;2023-03-04T01:43:05;94389.19;;;6.09;100.00
12775;BME280;6451;42.630;23.382;2023-03-04T01:45:32;94359.03;;;5.90;100.00
12775;BME280;6451;42.630;23.382;2023-03-04T01:48:02;94382.03;;;6.04;100.00
12775;BME280;6451;42.630;23.382;2023-03-04T01:50:32;94367.28;;;5.84;100.00
12775;BME280;6451;42.630;23.382;2023-03-04T01:53:00;94390.75;;;6.01;100.00
12775;BME280;6451;42.630;23.382;2023-03-04T01:55:28;94374.72;;;5.88;100.00
12775;BME280;6451;42.630;23.382;2023-03-04T01:57:55;94369.84;;;6.07;100.00
12775;BME280;6451;42.630;23.382;2023-03-04T02:00:26;94372.53;;;5.98;100.00
12775;BME280;6451;42.630;23.382;2023-03-04T02:02:58;94357.28;;;5.76;100.00
12775;BME280;6451;42.630;23.382;2023-03-04T02:05:27;94383.38;;;5.67;100.00
12775;BME280;6451;42.630;23.382;2023-03-04T02:07:56;94368.19;;;5.71;100.00
12775;BME280;6451;42.630;23.382;2023-03-04T02:10:26;94370.91;;;5.80;100.00
12775;BME280;6451;42.630;23.382;2023-03-04T02:12:53;94374.84;;;5.74;100.00
12775;BME280;6451;42.630;23.382;2023-03-04T02:15:20;94384.91;;;5.99;100.00
12775;BME280;6451;42.630;23.382;2023-03-04T02:17:48;94378.22;;;6.05;100.00
12775;BME280;6451;42.630;23.382;2023-03-04T02:20:33;94369.97;;;5.84;100.00
12775;BME280;6451;42.630;23.382;2023-03-04T02:23:08;94373.28;;;5.81;100.00
12775;BME280;6451;42.630;23.382;2023-03-04T02:25:41;94359.50;;;5.83;100.00
12775;BME280;6451;42.630;23.382;2023-03-04T02:28:12;94341.75;;;5.73;100.00
12775;BME280;6451;42.630;23.382;2023-03-04T02:30:39;94375.16;;;5.81;100.00
12775;BME280;6451;42.630;23.382;2023-03-04T02:33:12;94372.97;;;5.83;100.00
12775;BME280;6451;42.630;23.382;2023-03-04T02:35:40;94371.81;;;5.67;100.00
12775;BME280;6451;42.630;23.382;2023-03-04T02:38:09;94336.00;;;5.49;100.00
12775;BME280;6451;42.630;23.382;2023-03-04T02:40:36;94370.88;;;5.71;100.00
12775;BME280;6451;42.630;23.382;2023-03-04T02:43:04;94368.19;;;5.63;100.00
12775;BME280;6451;42.630;23.382;2023-03-04T02:45:38;94337.91;;;5.48;100.00
12775;BME280;6451;42.630;23.382;2023-03-04T02:48:06;94330.78;;;5.44;100.00
12775;BME280;6451;42.630;23.382;2023-03-04T02:50:36;94361.06;;;5.67;100.00
12775;BME280;6451;42.630;23.382;2023-03-04T02:53:04;94366.75;;;5.65;100.00
12775;BME280;6451;42.630;23.382;2023-03-04T02:55:31;94359.16;;;5.67;100.00
12775;BME280;6451;42.630;23.382;2023-03-04T02:57:58;94367.41;;;5.79;100.00
12775;BME280;6451;42.630;23.382;2023-03-04T03:00:25;94370.88;;;5.71;100.00
12775;BME280;6451;42.630;23.382;2023-03-04T03:02:55;94356.31;;;5.64;100.00
12775;BME280;6451;42.630;23.382;2023-03-04T03:05:24;94360.91;;;5.72;100.00
12775;BME280;6451;42.630;23.382;2023-03-04T03:07:52;94350.63;;;5.74;100.00
12775;BME280;6451;42.630;23.382;2023-03-04T03:10:20;94353.50;;;5.86;100.00
12775;BME280;6451;42.630;23.382;2023-03-04T03:12:47;94338.72;;;5.75;100.00
12775;BME280;6451;42.630;23.382;2023-03-04T03:15:14;94367.75;;;5.86;100.00
12775;BME280;6451;42.630;23.382;2023-03-04T03:17:41;94341.75;;;5.73;100.00
12775;BME280;6451;42.630;23.382;2023-03-04T03:20:11;94360.59;;;5.82;100.00
12775;BME280;6451;42.630;23.382;2023-03-04T03:22:38;94344.91;;;5.67;100.00
12775;BME280;6451;42.630;23.382;2023-03-04T03:25:09;94330.66;;;5.75;100.00
12775;BME280;6451;42.630;23.382;2023-03-04T03:27:36;94327.81;;;5.80;100.00
12775;BME280;6451;42.630;23.382;2023-03-04T03:30:05;94337.66;;;5.76;100.00
12775;BME280;6451;42.630;23.382;2023-03-04T03:32:32;94345.56;;;5.81;100.00
12775;BME280;6451;42.630;23.382;2023-03-04T03:35:00;94305.31;;;5.58;100.00
12775;BME280;6451;42.630;23.382;2023-03-04T03:37:28;94342.59;;;5.91;100.00
12775;BME280;6451;42.630;23.382;2023-03-04T03:39:55;94337.81;;;5.97;100.00
12775;BME280;6451;42.630;23.382;2023-03-04T03:42:22;94339.59;;;5.93;100.00
12775;BME280;6451;42.630;23.382;2023-03-04T03:44:50;94344.63;;;5.77;100.00
12775;BME280;6451;42.630;23.382;2023-03-04T03:47:17;94343.19;;;5.71;100.00
12775;BME280;6451;42.630;23.382;2023-03-04T03:49:44;94318.75;;;5.58;100.00
12775;BME280;6451;42.630;23.382;2023-03-04T03:52:11;94340.00;;;5.60;100.00
12775;BME280;6451;42.630;23.382;2023-03-04T03:54:40;94337.78;;;5.53;100.00
12775;BME280;6451;42.630;23.382;2023-03-04T03:57:07;94340.94;;;5.55;100.00
12775;BME280;6451;42.630;23.382;2023-03-04T03:59:34;94275.66;;;5.07;100.00
12775;BME280;6451;42.630;23.382;2023-03-04T04:02:01;94333.63;;;5.39;100.00
12775;BME280;6451;42.630;23.382;2023-03-04T04:04:28;94309.84;;;5.15;100.00
12775;BME280;6451;42.630;23.382;2023-03-04T04:06:55;94333.69;;;5.08;100.00
12775;BME280;6451;42.630;23.382;2023-03-04T04:09:22;94327.34;;;5.03;100.00
12775;BME280;6451;42.630;23.382;2023-03-04T04:11:50;94330.81;;;5.04;100.00
12775;BME280;6451;42.630;23.382;2023-03-04T04:14:17;94322.25;;;4.93;100.00
12775;BME280;6451;42.630;23.382;2023-03-04T04:16:45;94335.72;;;5.02;100.00
12775;BME280;6451;42.630;23.382;2023-03-04T04:19:16;94332.38;;;4.96;100.00
12775;BME280;6451;42.630;23.382;2023-03-04T04:21:43;94312.75;;;4.87;100.00
12775;BME280;6451;42.630;23.382;2023-03-04T04:24:10;94325.72;;;4.94;100.00
12775;BME280;6451;42.630;23.382;2023-03-04T04:26:37;94334.28;;;4.96;100.00
12775;BME280;6451;42.630;23.382;2023-03-04T04:29:05;94303.00;;;4.60;100.00
12775;BME280;6451;42.630;23.382;2023-03-04T04:31:32;94333.50;;;4.64;100.00
12775;BME280;6451;42.630;23.382;2023-03-04T04:33:59;94332.84;;;4.59;100.00
12775;BME280;6451;42.630;23.382;2023-03-04T04:36:26;94327.97;;;4.61;100.00
12775;BME280;6451;42.630;23.382;2023-03-04T04:38:53;94346.81;;;4.69;100.00
12775;BME280;6451;42.630;23.382;2023-03-04T04:41:22;94331.25;;;4.58;100.00
12775;BME280;6451;42.630;23.382;2023-03-04T04:43:49;94328.75;;;4.61;100.00
12775;BME280;6451;42.630;23.382;2023-03-04T04:46:18;94326.66;;;4.58;100.00
12775;BME280;6451;42.630;23.382;2023-03-04T04:48:45;94307.31;;;4.39;100.00
12775;BME280;6451;42.630;23.382;2023-03-04T04:51:12;94325.38;;;4.47;100.00
12775;BME280;6451;42.630;23.382;2023-03-04T04:53:39;94332.19;;;4.53;100.00
12775;BME280;6451;42.630;23.382;2023-03-04T04:56:10;94298.31;;;4.43;100.00
12775;BME280;6451;42.630;23.382;2023-03-04T04:58:39;94335.41;;;4.64;100.00
12775;BME280;6451;42.630;23.382;2023-03-04T05:01:08;94333.03;;;4.62;100.00
12775;BME280;6451;42.630;23.382;2023-03-04T05:03:37;94274.09;;;4.35;100.00
12775;BME280;6451;42.630;23.382;2023-03-04T05:06:06;94343.50;;;5.12;100.00
12775;BME280;6451;42.630;23.382;2023-03-04T05:08:34;94335.66;;;5.33;100.00
12775;BME280;6451;42.630;23.382;2023-03-04T05:11:04;94351.22;;;5.53;100.00
12775;BME280;6451;42.630;23.382;2023-03-04T05:13:31;94337.59;;;5.58;100.00
12775;BME280;6451;42.630;23.382;2023-03-04T05:16:00;94347.44;;;5.72;100.00
12775;BME280;6451;42.630;23.382;2023-03-04T05:18:27;94341.94;;;5.77;100.00
12775;BME280;6451;42.630;23.382;2023-03-04T05:20:57;94344.66;;;5.94;100.00
12775;BME280;6451;42.630;23.382;2023-03-04T05:23:25;94339.59;;;6.01;100.00
12775;BME280;6451;42.630;23.382;2023-03-04T05:25:54;94300.88;;;5.89;100.00
12775;BME280;6451;42.630;23.382;2023-03-04T05:28:22;94272.50;;;5.22;100.00
12775;BME280;6451;42.630;23.382;2023-03-04T05:30:49;94353.03;;;5.84;100.00
12775;BME280;6451;42.630;23.382;2023-03-04T05:33:16;94336.72;;;5.98;100.00
12775;BME280;6451;42.630;23.382;2023-03-04T05:35:45;94352.06;;;5.80;100.00
12775;BME280;6451;42.630;23.382;2023-03-04T05:38:17;94366.28;;;5.72;100.00
12775;BME280;6451;42.630;23.382;2023-03-04T05:40:44;94367.25;;;5.76;100.00
12775;BME280;6451;42.630;23.382;2023-03-04T05:43:13;94367.53;;;5.57;100.00
12775;BME280;6451;42.630;23.382;2023-03-04T05:45:41;94354.81;;;5.32;100.00
12775;BME280;6451;42.630;23.382;2023-03-04T05:48:08;94364.50;;;5.41;100.00
12775;BME280;6451;42.630;23.382;2023-03-04T05:50:35;94362.00;;;5.53;100.00
12775;BME280;6451;42.630;23.382;2023-03-04T05:53:02;94350.69;;;5.34;100.00
12775;BME280;6451;42.630;23.382;2023-03-04T05:55:30;94360.69;;;5.51;100.00
12775;BME280;6451;42.630;23.382;2023-03-04T05:57:57;94373.88;;;5.52;100.00
12775;BME280;6451;42.630;23.382;2023-03-04T06:00:25;94337.69;;;5.27;100.00
12775;BME280;6451;42.630;23.382;2023-03-04T06:02:52;94374.81;;;5.56;100.00
12775;BME280;6451;42.630;23.382;2023-03-04T06:05:19;94306.16;;;5.11;100.00
12775;BME280;6451;42.630;23.382;2023-03-04T06:07:46;94310.31;;;5.25;100.00
12775;BME280;6451;42.630;23.382;2023-03-04T06:10:15;94370.22;;;5.48;100.00
12775;BME280;6451;42.630;23.382;2023-03-04T06:12:43;94369.28;;;5.53;100.00
12775;BME280;6451;42.630;23.382;2023-03-04T06:15:11;94337.22;;;5.25;100.00
12775;BME280;6451;42.630;23.382;2023-03-04T06:17:39;94365.94;;;5.56;100.00
12775;BME280;6451;42.630;23.382;2023-03-04T06:20:07;94385.28;;;5.67;100.00
12775;BME280;6451;42.630;23.382;2023-03-04T06:22:34;94379.75;;;5.80;100.00
12775;BME280;6451;42.630;23.382;2023-03-04T06:25:02;94381.19;;;5.86;100.00
12775;BME280;6451;42.630;23.382;2023-03-04T06:27:29;94358.06;;;5.77;100.00
12775;BME280;6451;42.630;23.382;2023-03-04T06:29:57;94329.53;;;5.67;100.00
12775;BME280;6451;42.630;23.382;2023-03-04T06:32:24;94385.84;;;6.12;100.00
12775;BME280;6451;42.630;23.382;2023-03-04T06:34:51;94359.81;;;5.81;100.00
12775;BME280;6451;42.630;23.382;2023-03-04T06:37:18;94388.25;;;6.13;100.00
12775;BME280;6451;42.630;23.382;2023-03-04T06:39:45;94391.22;;;6.12;100.00
12775;BME280;6451;42.630;23.382;2023-03-04T06:42:13;94390.75;;;6.19;100.00
12775;BME280;6451;42.630;23.382;2023-03-04T06:44:40;94389.50;;;5.99;100.00
12775;BME280;6451;42.630;23.382;2023-03-04T06:47:08;94368.19;;;5.63;100.00
12775;BME280;6451;42.630;23.382;2023-03-04T06:49:35;94404.91;;;5.67;100.00
12775;BME280;6451;42.630;23.382;2023-03-04T06:52:02;94399.19;;;5.51;100.00
12775;BME280;6451;42.630;23.382;2023-03-04T06:54:29;94406.31;;;5.56;100.00
12775;BME280;6451;42.630;23.382;2023-03-04T06:56:56;94408.25;;;5.73;100.00
12775;BME280;6451;42.630;23.382;2023-03-04T06:59:22;94399.34;;;5.46;100.00
12775;BME280;6451;42.630;23.382;2023-03-04T07:01:49;94403.75;;;5.51;100.00
12775;BME280;6451;42.630;23.382;2023-03-04T07:04:19;94386.22;;;5.53;100.00
12775;BME280;6451;42.630;23.382;2023-03-04T07:06:47;94416.28;;;5.55;100.00
12775;BME280;6451;42.630;23.382;2023-03-04T07:09:14;94412.84;;;5.64;100.00
12775;BME280;6451;42.630;23.382;2023-03-04T07:11:41;94411.59;;;5.78;100.00
12775;BME280;6451;42.630;23.382;2023-03-04T07:14:08;94394.66;;;5.69;100.00
12775;BME280;6451;42.630;23.382;2023-03-04T07:16:35;94414.25;;;5.52;100.00
12775;BME280;6451;42.630;23.382;2023-03-04T07:19:02;94421.53;;;5.61;100.00
12775;BME280;6451;42.630;23.382;2023-03-04T07:21:32;94410.00;;;5.69;100.00
12775;BME280;6451;42.630;23.382;2023-03-04T07:23:58;94423.63;;;5.72;100.00
12775;BME280;6451;42.630;23.382;2023-03-04T07:26:25;94407.28;;;5.60;100.00
12775;BME280;6451;42.630;23.382;2023-03-04T07:28:52;94397.47;;;5.55;100.00
12775;BME280;6451;42.630;23.382;2023-03-04T07:31:23;94358.28;;;5.23;100.00
12775;BME280;6451;42.630;23.382;2023-03-04T07:33:54;94429.47;;;5.74;100.00
12775;BME280;6451;42.630;23.382;2023-03-04T07:36:22;94413.88;;;6.02;100.00
12775;BME280;6451;42.630;23.382;2023-03-04T07:38:50;94426.56;;;6.10;100.00
12775;BME280;6451;42.630;23.382;2023-03-04T07:41:20;94416.75;;;6.06;100.00
12775;BME280;6451;42.630;23.382;2023-03-04T07:43:47;94424.34;;;6.12;100.00
12775;BME280;6451;42.630;23.382;2023-03-04T07:46:14;94356.22;;;6.03;100.00
12775;BME280;6451;42.630;23.382;2023-03-04T07:48:41;94420.56;;;6.48;100.00
12775;BME280;6451;42.630;23.382;2023-03-04T07:51:09;94405.66;;;6.33;100.00
12775;BME280;6451;42.630;23.382;2023-03-04T07:53:39;94404.69;;;6.21;100.00
12775;BME280;6451;42.630;23.382;2023-03-04T07:56:11;94378.41;;;6.09;100.00
12775;BME280;6451;42.630;23.382;2023-03-04T07:58:38;94358.13;;;5.94;100.00
12775;BME280;6451;42.630;23.382;2023-03-04T08:01:08;94419.78;;;6.22;100.00
12775;BME280;6451;42.630;23.382;2023-03-04T08:03:37;94394.34;;;5.88;100.00
12775;BME280;6451;42.630;23.382;2023-03-04T08:06:06;94414.72;;;6.29;100.00
12775;BME280;6451;42.630;23.382;2023-03-04T08:08:34;94409.94;;;6.43;100.00
12775;BME280;6451;42.630;23.382;2023-03-04T08:11:03;94387.25;;;6.35;100.00
12775;BME280;6451;42.630;23.382;2023-03-04T08:13:34;94393.28;;;6.50;100.00
12775;BME280;6451;42.630;23.382;2023-03-04T08:16:01;94363.03;;;6.27;100.00
12775;BME280;6451;42.630;23.382;2023-03-04T08:18:29;94404.84;;;6.67;100.00
12775;BME280;6451;42.630;23.382;2023-03-04T08:20:56;94397.56;;;6.42;100.00
12775;BME280;6451;42.630;23.382;2023-03-04T08:23:23;94394.41;;;6.40;100.00
12775;BME280;6451;42.630;23.382;2023-03-04T08:25:50;94397.88;;;6.49;100.00
12775;BME280;6451;42.630;23.382;2023-03-04T08:28:17;94398.63;;;6.84;100.00
12775;BME280;6451;42.630;23.382;2023-03-04T08:30:52;94381.13;;;7.08;100.00
12775;BME280;6451;42.630;23.382;2023-03-04T08:33:22;94392.25;;;7.36;100.00
12775;BME280;6451;42.630;23.382;2023-03-04T08:35:48;94383.06;;;7.66;100.00
12775;BME280;6451;42.630;23.382;2023-03-04T08:38:15;94391.63;;;7.98;100.00
12775;BME280;6451;42.630;23.382;2023-03-04T08:40:43;94391.53;;;7.86;100.00
12775;BME280;6451;42.630;23.382;2023-03-04T08:43:10;94379.59;;;8.37;100.00
12775;BME280;6451;42.630;23.382;2023-03-04T08:45:37;94373.97;;;8.63;100.00
12775;BME280;6451;42.630;23.382;2023-03-04T08:48:06;94365.66;;;8.68;100.00
12775;BME280;6451;42.630;23.382;2023-03-04T08:50:32;94362.16;;;8.68;100.00
12775;BME280;6451;42.630;23.382;2023-03-04T08:52:59;94354.75;;;8.44;100.00
12775;BME280;6451;42.630;23.382;2023-03-04T08:55:26;94367.50;;;8.34;100.00
12775;BME280;6451;42.630;23.382;2023-03-04T08:57:54;94369.66;;;8.95;100.00
12775;BME280;6451;42.630;23.382;2023-03-04T09:00:21;94348.53;;;8.76;100.00
12775;BME280;6451;42.630;23.382;2023-03-04T09:02:48;94303.19;;;8.61;100.00
12775;BME280;6451;42.630;23.382;2023-03-04T09:05:16;94357.69;;;8.96;100.00
12775;BME280;6451;42.630;23.382;2023-03-04T09:07:43;94345.63;;;8.94;100.00
12775;BME280;6451;42.630;23.382;2023-03-04T09:10:15;94359.75;;;8.66;100.00
12775;BME280;6451;42.630;23.382;2023-03-04T09:12:42;94360.69;;;9.28;100.00
12775;BME280;6451;42.630;23.382;2023-03-04T09:15:09;94358.22;;;9.35;100.00
12775;BME280;6451;42.630;23.382;2023-03-04T09:17:36;94348.59;;;9.01;100.00
12775;BME280;6451;42.630;23.382;2023-03-04T09:20:04;94341.84;;;9.07;100.00
12775;BME280;6451;42.630;23.382;2023-03-04T09:22:34;94354.50;;;9.52;100.00
12775;BME280;6451;42.630;23.382;2023-03-04T09:25:01;94362.53;;;9.36;100.00
12775;BME280;6451;42.630;23.382;2023-03-04T09:27:28;94293.06;;;8.70;100.00
12775;BME280;6451;42.630;23.382;2023-03-04T09:29:56;94340.13;;;9.02;100.00
12775;BME280;6451;42.630;23.382;2023-03-04T09:32:25;94344.69;;;8.77;100.00
12775;BME280;6451;42.630;23.382;2023-03-04T09:34:52;94318.09;;;8.67;100.00
12775;BME280;6451;42.630;23.382;2023-03-04T09:37:18;94337.47;;;8.81;100.00
12775;BME280;6451;42.630;23.382;2023-03-04T09:39:47;94347.19;;;8.49;100.00
12775;BME280;6451;42.630;23.382;2023-03-04T09:42:23;94348.41;;;8.73;100.00
12775;BME280;6451;42.630;23.382;2023-03-04T09:44:51;94314.03;;;8.19;100.00
12775;BME280;6451;42.630;23.382;2023-03-04T09:47:20;94327.19;;;8.62;100.00
12775;BME280;6451;42.630;23.382;2023-03-04T09:49:53;94338.47;;;8.64;100.00
12775;BME280;6451;42.630;23.382;2023-03-04T09:52:32;94342.69;;;8.74;100.00
12775;BME280;6451;42.630;23.382;2023-03-04T09:55:17;94348.56;;;8.55;100.00
12775;BME280;6451;42.630;23.382;2023-03-04T09:57:51;94343.06;;;8.52;100.00
12775;BME280;6451;42.630;23.382;2023-03-04T10:00:20;94340.53;;;8.80;100.00
12775;BME280;6451;42.630;23.382;2023-03-04T10:03:05;94332.41;;;8.68;100.00
12775;BME280;6451;42.630;23.382;2023-03-04T10:05:40;94331.91;;;8.53;100.00
12775;BME280;6451;42.630;23.382;2023-03-04T10:11:12;94292.75;;;8.96;100.00
12775;BME280;6451;42.630;23.382;2023-03-04T10:13:56;94297.97;;;9.13;100.00
12775;BME280;6451;42.630;23.382;2023-03-04T10:16:29;94301.59;;;9.30;100.00
12775;BME280;6451;42.630;23.382;2023-03-04T10:19:02;94314.22;;;9.38;100.00
12775;BME280;6451;42.630;23.382;2023-03-04T10:21:40;94311.84;;;9.48;100.00
12775;BME280;6451;42.630;23.382;2023-03-04T10:24:11;94276.28;;;8.89;100.00
12775;BME280;6451;42.630;23.382;2023-03-04T10:26:41;94297.19;;;9.25;100.00
12775;BME280;6451;42.630;23.382;2023-03-04T10:29:13;94306.78;;;9.59;100.00
12775;BME280;6451;42.630;23.382;2023-03-04T10:31:42;94303.69;;;9.12;100.00
12775;BME280;6451;42.630;23.382;2023-03-04T10:34:11;94287.78;;;8.86;100.00
12775;BME280;6451;42.630;23.382;2023-03-04T10:36:47;94292.09;;;8.99;100.00
12775;BME280;6451;42.630;23.382;2023-03-04T10:39:18;94295.13;;;9.10;100.00
12775;BME280;6451;42.630;23.382;2023-03-04T10:41:56;94276.41;;;8.93;100.00
12775;BME280;6451;42.630;23.382;2023-03-04T10:44:25;94286.31;;;9.62;100.00
12775;BME280;6451;42.630;23.382;2023-03-04T10:46:54;94257.69;;;9.36;100.00
12775;BME280;6451;42.630;23.382;2023-03-04T10:49:22;94284.31;;;8.98;100.00
12775;BME280;6451;42.630;23.382;2023-03-04T10:51:52;94277.22;;;9.17;100.00
12775;BME280;6451;42.630;23.382;2023-03-04T10:54:39;94271.91;;;9.33;100.00
12775;BME280;6451;42.630;23.382;2023-03-04T10:57:14;94255.81;;;9.77;100.00
12775;BME280;6451;42.630;23.382;2023-03-04T10:59:44;94266.03;;;9.96;100.00
12775;BME280;6451;42.630;23.382;2023-03-04T11:02:23;94234.84;;;9.74;100.00
12775;BME280;6451;42.630;23.382;2023-03-04T11:04:58;94254.75;;;10.22;100.00
12775;BME280;6451;42.630;23.382;2023-03-04T11:07:35;94233.72;;;10.31;100.00
12775;BME280;6451;42.630;23.382;2023-03-04T11:10:09;94226.94;;;10.53;100.00
12775;BME280;6451;42.630;23.382;2023-03-04T11:12:37;94234.41;;;10.72;100.00
12775;BME280;6451;42.630;23.382;2023-03-04T11:15:16;94233.06;;;10.66;100.00
12775;BME280;6451;42.630;23.382;2023-03-04T11:17:47;94212.06;;;10.78;100.00
12775;BME280;6451;42.630;23.382;2023-03-04T11:20:22;94221.16;;;10.54;100.00
12775;BME280;6451;42.630;23.382;2023-03-04T11:22:51;94210.47;;;10.30;100.00
12775;BME280;6451;42.630;23.382;2023-03-04T11:25:24;94221.84;;;10.08;100.00
12775;BME280;6451;42.630;23.382;2023-03-04T11:27:55;94213.59;;;10.32;100.00
12775;BME280;6451;42.630;23.382;2023-03-04T11:30:35;94164.19;;;10.11;100.00
12775;BME280;6451;42.630;23.382;2023-03-04T11:33:13;94210.47;;;10.18;100.00
12775;BME280;6451;42.630;23.382;2023-03-04T11:35:53;94178.28;;;10.28;100.00
12775;BME280;6451;42.630;23.382;2023-03-04T11:38:28;94200.78;;;10.45;100.00
12775;BME280;6451;42.630;23.382;2023-03-04T11:41:02;94182.81;;;10.24;100.00
12775;BME280;6451;42.630;23.382;2023-03-04T11:43:35;94199.72;;;10.49;100.00
12775;BME280;6451;42.630;23.382;2023-03-04T11:46:15;94183.91;;;10.83;100.00
12775;BME280;6451;42.630;23.382;2023-03-04T11:48:51;94177.16;;;10.61;100.00
12775;BME280;6451;42.630;23.382;2023-03-04T11:51:23;94191.66;;;10.37;100.00
12775;BME280;6451;42.630;23.382;2023-03-04T11:54:07;93923.63;;;8.69;100.00
12775;BME280;6451;42.630;23.382;2023-03-04T11:56:42;94175.34;;;10.21;100.00
12775;BME280;6451;42.630;23.382;2023-03-04T11:59:44;94176.50;;;9.92;100.00
12775;BME280;6451;42.630;23.382;2023-03-04T12:02:17;94175.03;;;10.23;100.00
12775;BME280;6451;42.630;23.382;2023-03-04T12:05:16;94178.78;;;10.34;100.00
12775;BME280;6451;42.630;23.382;2023-03-04T12:08:02;94174.38;;;10.14;100.00
12775;BME280;6451;42.630;23.382;2023-03-04T12:10:40;94173.81;;;10.08;100.00
12775;BME280;6451;42.630;23.382;2023-03-04T12:13:28;94154.03;;;9.64;100.00
12775;BME280;6451;42.630;23.382;2023-03-04T12:16:10;94165.94;;;10.03;100.00
12775;BME280;6451;42.630;23.382;2023-03-04T12:18:50;94160.78;;;9.98;100.00
12775;BME280;6451;42.630;23.382;2023-03-04T12:21:35;94143.78;;;9.85;100.00
12775;BME280;6451;42.630;23.382;2023-03-04T12:24:47;94153.94;;;10.32;100.00
12775;BME280;6451;42.630;23.382;2023-03-04T12:27:22;94149.50;;;10.55;100.00
12775;BME280;6451;42.630;23.382;2023-03-04T12:29:56;94150.44;;;10.47;100.00
12775;BME280;6451;42.630;23.382;2023-03-04T12:32:31;94151.06;;;10.25;100.00
12775;BME280;6451;42.630;23.382;2023-03-04T12:35:23;93876.78;;;8.13;100.00
12775;BME280;6451;42.630;23.382;2023-03-04T12:38:28;94147.19;;;9.82;100.00
12775;BME280;6451;42.630;23.382;2023-03-04T12:41:07;94150.63;;;9.67;100.00
12775;BME280;6451;42.630;23.382;2023-03-04T12:43:48;94148.75;;;9.83;100.00
12775;BME280;6451;42.630;23.382;2023-03-04T12:46:26;94129.97;;;9.34;100.00
12775;BME280;6451;42.630;23.382;2023-03-04T12:49:13;94137.72;;;9.48;100.00
12775;BME280;6451;42.630;23.382;2023-03-04T12:51:46;94117.34;;;9.38;100.00
12775;BME280;6451;42.630;23.382;2023-03-04T12:54:21;93914.09;;;8.07;100.00
12775;BME280;6451;42.630;23.382;2023-03-04T12:56:53;94098.81;;;9.68;100.00
12775;BME280;6451;42.630;23.382;2023-03-04T12:59:25;94070.00;;;9.48;100.00
12775;BME280;6451;42.630;23.382;2023-03-04T13:01:55;94056.47;;;9.20;100.00
12775;BME280;6451;42.630;23.382;2023-03-04T13:04:34;94125.88;;;9.53;100.00
12775;BME280;6451;42.630;23.382;2023-03-04T13:07:12;94107.72;;;9.69;100.00
12775;BME280;6451;42.630;23.382;2023-03-04T13:09:46;94056.47;;;9.20;100.00
12775;BME280;6451;42.630;23.382;2023-03-04T13:12:19;93911.03;;;8.08;100.00
12775;BME280;6451;42.630;23.382;2023-03-04T13:15:15;94108.16;;;9.43;100.00
12775;BME280;6451;42.630;23.382;2023-03-04T13:17:43;94098.16;;;9.31;100.00